Time;durP1;ratioP1;P1;durP2;ratioP2;P2;SDS_P1;SDS_P2;PMS_P1;PMS_P2;Temp;Humidity;BMP_temperature;BMP_pressure;BME280_temperature;BME280_humidity;BME280_pressure;Samples;Min_cycle;Max_cycle;Signal;HPM_P1;HPM_P2
2023/06/11 00:01:29;;;;;;;8.57;7.60;;;;;;;;;;5096091;28;20916;-75
2023/06/11 00:03:56;;;;;;;8.60;7.20;;;;;;;;;;5099737;28;20940;-76
2023/06/11 00:06:24;;;;;;;9.07;7.10;;;;;;;;;;5099608;28;20445;-76
2023/06/11 00:08:52;;;;;;;7.93;7.13;;;;;;;;;;5099952;28;20566;-76
2023/06/11 00:11:21;;;;;;;8.10;7.10;;;;;;;;;;5099377;28;20448;-76
2023/06/11 00:13:48;;;;;;;9.50;7.67;;;;;;;;;;5099948;28;20433;-76
2023/06/11 00:16:16;;;;;;;9.87;7.37;;;;;;;;;;5099734;28;20442;-75
2023/06/11 00:18:45;;;;;;;9.33;8.33;;;;;;;;;;5099596;28;20433;-76
2023/06/11 00:21:12;;;;;;;10.47;8.00;;;;;;;;;;5099452;28;20992;-76
2023/06/11 00:23:40;;;;;;;9.03;8.17;;;;;;;;;;5099642;28;20441;-76
2023/06/11 00:26:07;;;;;;;10.47;8.70;;;;;;;;;;5099560;28;20523;-76
2023/06/11 00:28:36;;;;;;;10.77;8.37;;;;;;;;;;5099643;28;20470;-76
2023/06/11 00:31:04;;;;;;;9.40;7.80;;;;;;;;;;5099641;28;20473;-76
2023/06/11 00:33:31;;;;;;;10.57;7.70;;;;;;;;;;5099634;28;20525;-75
2023/06/11 00:35:58;;;;;;;9.40;8.40;;;;;;;;;;5099345;28;20473;-75
2023/06/11 00:38:26;;;;;;;9.40;8.50;;;;;;;;;;5099215;28;20992;-76
2023/06/11 00:40:53;;;;;;;12.20;9.87;;;;;;;;;;5098909;28;20492;-76
2023/06/11 00:43:23;;;;;;;9.80;8.80;;;;;;;;;;5099874;28;20453;-75
2023/06/11 00:45:52;;;;;;;9.90;8.87;;;;;;;;;;5099563;28;20442;-75
2023/06/11 00:48:20;;;;;;;8.67;7.73;;;;;;;;;;5098915;28;20469;-75
2023/06/11 00:50:48;;;;;;;11.73;8.80;;;;;;;;;;5099341;28;20449;-76
2023/06/11 00:53:17;;;;;;;9.73;8.73;;;;;;;;;;5099585;28;20476;-76
2023/06/11 00:55:45;;;;;;;9.00;8.07;;;;;;;;;;5099157;28;20564;-75
2023/06/11 00:58:14;;;;;;;9.70;8.13;;;;;;;;;;5099221;28;20442;-75
2023/06/11 01:00:42;;;;;;;10.13;7.53;;;;;;;;;;5099308;28;20473;-76
2023/06/11 01:03:17;;;;;;;10.53;8.10;;;;;;;;;;5099360;28;20841;-75
2023/06/11 01:05:47;;;;;;;11.67;8.90;;;;;;;;;;5099432;28;20569;-76
2023/06/11 01:08:17;;;;;;;9.47;7.90;;;;;;;;;;5099356;28;20456;-75
2023/06/11 01:10:45;;;;;;;9.57;8.27;;;;;;;;;;5099351;28;20516;-76
2023/06/11 01:13:12;;;;;;;10.97;8.77;;;;;;;;;;5096663;28;20437;-75
2023/06/11 01:15:39;;;;;;;10.37;8.23;;;;;;;;;;5096058;28;20481;-75
2023/06/11 01:18:10;;;;;;;9.83;7.30;;;;;;;;;;5096134;28;20521;-75
2023/06/11 01:20:41;;;;;;;8.60;7.70;;;;;;;;;;5095770;28;20441;-75
2023/06/11 01:23:17;;;;;;;8.27;7.37;;;;;;;;;;5095604;28;20469;-75
2023/06/11 01:25:48;;;;;;;9.90;8.27;;;;;;;;;;5095813;28;20441;-76
2023/06/11 01:28:19;;;;;;;8.33;7.33;;;;;;;;;;5095609;28;20977;-75
2023/06/11 01:30:48;;;;;;;8.90;7.87;;;;;;;;;;5095617;28;20810;-75
2023/06/11 01:33:18;;;;;;;8.63;7.73;;;;;;;;;;5095723;28;20445;-76
2023/06/11 01:35:46;;;;;;;13.13;9.00;;;;;;;;;;5095710;28;20440;-75
2023/06/11 01:38:17;;;;;;;9.50;8.50;;;;;;;;;;5095669;28;20446;-75
2023/06/11 01:40:44;;;;;;;9.67;7.97;;;;;;;;;;5095653;28;20433;-75
2023/06/11 01:43:12;;;;;;;9.50;8.47;;;;;;;;;;5095642;28;20799;-76
2023/06/11 01:45:41;;;;;;;10.30;9.20;;;;;;;;;;5095536;28;20499;-75
2023/06/11 01:48:08;;;;;;;9.37;8.37;;;;;;;;;;5095254;28;20441;-75
2023/06/11 01:50:35;;;;;;;11.07;8.77;;;;;;;;;;5094715;28;20444;-75
2023/06/11 01:53:03;;;;;;;10.07;8.77;;;;;;;;;;5094892;28;20460;-75
2023/06/11 01:55:30;;;;;;;10.30;8.90;;;;;;;;;;5095055;28;20472;-75
2023/06/11 01:58:02;;;;;;;10.20;9.10;;;;;;;;;;5095250;28;20446;-75
2023/06/11 02:00:29;;;;;;;9.70;8.50;;;;;;;;;;5095451;28;20433;-75
2023/06/11 02:02:59;;;;;;;10.37;9.20;;;;;;;;;;5095346;28;20486;-76
2023/06/11 02:05:26;;;;;;;9.70;8.70;;;;;;;;;;5095249;28;20807;-75
2023/06/11 02:07:54;;;;;;;10.67;8.17;;;;;;;;;;5095250;28;20468;-75
2023/06/11 02:10:21;;;;;;;11.73;8.60;;;;;;;;;;5095019;28;20528;-76
2023/06/11 02:12:48;;;;;;;10.57;9.57;;;;;;;;;;5095059;28;20473;-75
2023/06/11 02:15:16;;;;;;;9.30;8.07;;;;;;;;;;5094884;28;20441;-75
2023/06/11 02:17:43;;;;;;;10.00;8.23;;;;;;;;;;5094813;28;20437;-75
2023/06/11 02:20:15;;;;;;;8.53;7.47;;;;;;;;;;5094480;28;20971;-76
2023/06/11 02:22:42;;;;;;;9.57;8.10;;;;;;;;;;5094109;28;20568;-76
2023/06/11 02:25:10;;;;;;;11.93;8.07;;;;;;;;;;5093457;28;20536;-76
2023/06/11 02:27:37;;;;;;;9.90;7.53;;;;;;;;;;5094660;28;20490;-76
2023/06/11 02:30:04;;;;;;;9.17;8.20;;;;;;;;;;5094630;28;20469;-75
2023/06/11 02:32:31;;;;;;;8.60;7.70;;;;;;;;;;5094623;28;20445;-75
2023/06/11 02:34:59;;;;;;;9.17;8.20;;;;;;;;;;5094197;28;20520;-75
2023/06/11 02:37:27;;;;;;;10.27;9.17;;;;;;;;;;5094497;28;20468;-75
2023/06/11 02:39:55;;;;;;;11.23;8.93;;;;;;;;;;5094088;28;20987;-75
2023/06/11 02:42:27;;;;;;;10.47;8.67;;;;;;;;;;5094263;28;20537;-76
2023/06/11 02:44:54;;;;;;;10.87;8.40;;;;;;;;;;5094386;28;20495;-75
2023/06/11 02:47:21;;;;;;;11.50;10.30;;;;;;;;;;5094284;28;20464;-75
2023/06/11 02:49:48;;;;;;;11.90;9.07;;;;;;;;;;5093890;28;20476;-75
2023/06/11 02:52:15;;;;;;;11.70;8.47;;;;;;;;;;5093674;28;20510;-75
2023/06/11 02:54:44;;;;;;;10.87;8.37;;;;;;;;;;5093841;28;20540;-75
2023/06/11 02:57:11;;;;;;;9.53;8.50;;;;;;;;;;5092700;28;20507;-75
2023/06/11 02:59:39;;;;;;;11.03;8.20;;;;;;;;;;5093993;28;20429;-74
2023/06/11 03:02:06;;;;;;;11.80;8.70;;;;;;;;;;5093951;28;20543;-74
2023/06/11 03:04:33;;;;;;;10.00;8.10;;;;;;;;;;5093688;28;20484;-75
2023/06/11 03:07:00;;;;;;;10.80;8.63;;;;;;;;;;5093607;28;20943;-75
2023/06/11 03:09:28;;;;;;;10.77;8.47;;;;;;;;;;5093869;28;20504;-75
2023/06/11 03:11:56;;;;;;;9.53;8.50;;;;;;;;;;5094094;28;20508;-75
2023/06/11 03:14:24;;;;;;;9.60;7.53;;;;;;;;;;5093827;28;20857;-75
2023/06/11 03:16:52;;;;;;;10.60;9.10;;;;;;;;;;5093876;28;20452;-76
2023/06/11 03:19:19;;;;;;;12.57;8.43;;;;;;;;;;5094140;28;20527;-75
2023/06/11 03:21:47;;;;;;;11.70;10.23;;;;;;;;;;5094091;28;20637;-76
2023/06/11 03:24:14;;;;;;;10.83;8.50;;;;;;;;;;5087435;28;20492;-77
2023/06/11 03:26:41;;;;;;;10.23;8.77;;;;;;;;;;5073206;28;20449;-76
2023/06/11 03:29:11;;;;;;;10.80;9.70;;;;;;;;;;5072946;28;20520;-77
2023/06/11 03:31:40;;;;;;;10.30;8.90;;;;;;;;;;5072832;28;20433;-75
2023/06/11 03:34:07;;;;;;;12.50;8.37;;;;;;;;;;5072133;28;20446;-75
2023/06/11 03:36:36;;;;;;;11.47;7.97;;;;;;;;;;5072558;28;20487;-76
2023/06/11 03:39:03;;;;;;;7.83;7.03;;;;;;;;;;5072710;28;20536;-76
2023/06/11 03:41:30;;;;;;;9.13;8.10;;;;;;;;;;5072439;28;20633;-75
2023/06/11 03:43:58;;;;;;;9.30;8.17;;;;;;;;;;5073132;28;20472;-76
2023/06/11 03:46:26;;;;;;;9.67;7.97;;;;;;;;;;5072689;28;20435;-76
2023/06/11 03:48:53;;;;;;;10.70;8.10;;;;;;;;;;5073858;28;20488;-77
2023/06/11 03:51:21;;;;;;;10.17;8.93;;;;;;;;;;5072869;28;20442;-76
2023/06/11 03:53:48;;;;;;;10.07;9.07;;;;;;;;;;5072329;28;20474;-76
2023/06/11 03:56:15;;;;;;;9.67;8.67;;;;;;;;;;5071994;28;20505;-76
2023/06/11 03:58:42;;;;;;;10.50;8.50;;;;;;;;;;5072352;28;20469;-76
2023/06/11 04:01:10;;;;;;;10.40;8.80;;;;;;;;;;5071215;28;20495;-76
2023/06/11 04:03:38;;;;;;;10.83;8.93;;;;;;;;;;5073416;28;20485;-76
2023/06/11 04:06:05;;;;;;;10.47;8.23;;;;;;;;;;5073500;28;20459;-76
2023/06/11 04:08:33;;;;;;;10.03;8.80;;;;;;;;;;5072833;28;20465;-76
2023/06/11 04:11:00;;;;;;;12.37;10.20;;;;;;;;;;5073770;28;20438;-75
2023/06/11 04:13:27;;;;;;;10.90;8.97;;;;;;;;;;5073766;28;20485;-75
2023/06/11 04:15:55;;;;;;;10.13;9.10;;;;;;;;;;5072979;28;20525;-76
2023/06/11 04:18:27;;;;;;;10.83;9.07;;;;;;;;;;5072920;28;20526;-76
2023/06/11 04:20:55;;;;;;;12.73;11.07;;;;;;;;;;5073388;28;20438;-76
2023/06/11 04:23:22;;;;;;;12.33;10.03;;;;;;;;;;5073312;28;20588;-76
2023/06/11 04:25:50;;;;;;;11.47;9.70;;;;;;;;;;5073914;28;20862;-76
2023/06/11 04:28:17;;;;;;;11.70;10.07;;;;;;;;;;5073399;28;20453;-75
2023/06/11 04:30:44;;;;;;;12.40;9.93;;;;;;;;;;5073470;28;20438;-76
2023/06/11 04:33:12;;;;;;;15.43;10.40;;;;;;;;;;5072894;28;20442;-76
2023/06/11 04:35:39;;;;;;;11.97;10.70;;;;;;;;;;5073279;28;20438;-77
2023/06/11 04:38:08;;;;;;;10.97;9.83;;;;;;;;;;5073265;28;20469;-75
2023/06/11 04:40:36;;;;;;;13.10;11.70;;;;;;;;;;5072675;28;20484;-76
2023/06/11 04:43:03;;;;;;;13.33;10.63;;;;;;;;;;5072925;28;20481;-75
2023/06/11 04:45:30;;;;;;;13.00;10.87;;;;;;;;;;5073079;28;20447;-76
2023/06/11 04:47:58;;;;;;;12.77;9.83;;;;;;;;;;5073995;28;20496;-77
2023/06/11 04:50:31;;;;;;;14.37;10.90;;;;;;;;;;5077251;28;20525;-76
2023/06/11 04:53:01;;;;;;;15.10;11.80;;;;;;;;;;5077039;28;20457;-75
2023/06/11 04:55:32;;;;;;;16.43;11.90;;;;;;;;;;5076701;28;20474;-77
2023/06/11 04:57:59;;;;;;;16.97;14.00;;;;;;;;;;5076481;28;20514;-75
2023/06/11 05:00:28;;;;;;;14.97;12.30;;;;;;;;;;5077077;28;20525;-76
2023/06/11 05:02:56;;;;;;;15.07;12.43;;;;;;;;;;5076519;28;20482;-76
2023/06/11 05:05:23;;;;;;;14.70;12.70;;;;;;;;;;5076776;28;20560;-76
2023/06/11 05:07:51;;;;;;;17.10;13.23;;;;;;;;;;5076555;28;20488;-76
2023/06/11 05:10:18;;;;;;;13.87;12.37;;;;;;;;;;5077089;28;20454;-76
2023/06/11 05:12:47;;;;;;;17.50;12.63;;;;;;;;;;5076328;28;20836;-75
2023/06/11 05:15:14;;;;;;;14.30;11.83;;;;;;;;;;5076259;28;20450;-76
2023/06/11 05:17:41;;;;;;;13.63;10.70;;;;;;;;;;5076795;28;20857;-76
2023/06/11 05:20:09;;;;;;;11.70;9.90;;;;;;;;;;5076314;28;20470;-77
2023/06/11 05:22:36;;;;;;;13.43;10.90;;;;;;;;;;5075724;28;20564;-75
2023/06/11 05:25:04;;;;;;;11.77;10.37;;;;;;;;;;5075937;28;20439;-74
2023/06/11 05:27:31;;;;;;;11.07;9.97;;;;;;;;;;5075506;28;20530;-74
2023/06/11 05:30:00;;;;;;;13.00;10.30;;;;;;;;;;5075947;28;20451;-74
2023/06/11 05:32:30;;;;;;;11.97;9.87;;;;;;;;;;5075615;28;20489;-75
2023/06/11 05:35:03;;;;;;;12.97;11.10;;;;;;;;;;5075839;28;20450;-74
2023/06/11 05:37:30;;;;;;;11.87;10.60;;;;;;;;;;5075535;28;20447;-74
2023/06/11 05:39:58;;;;;;;14.30;11.03;;;;;;;;;;5076219;28;20802;-74
2023/06/11 05:42:25;;;;;;;12.73;10.00;;;;;;;;;;5075463;28;20539;-75
2023/06/11 05:44:57;;;;;;;14.53;11.13;;;;;;;;;;5069929;28;20475;-77
2023/06/11 05:47:35;;;;;;;10.93;9.70;;;;;;;;;;5072489;28;20508;-75
2023/06/11 05:50:02;;;;;;;11.97;8.80;;;;;;;;;;5072793;28;20932;-75
2023/06/11 05:52:30;;;;;;;10.70;9.60;;;;;;;;;;5073445;28;20427;-75
2023/06/11 05:54:57;;;;;;;9.83;8.70;;;;;;;;;;5072952;28;20547;-75
2023/06/11 05:57:25;;;;;;;10.50;9.40;;;;;;;;;;5072817;28;20533;-75
2023/06/11 05:59:53;;;;;;;9.87;8.77;;;;;;;;;;5071669;28;20534;-74
2023/06/11 06:02:20;;;;;;;9.77;8.70;;;;;;;;;;5072272;28;20522;-75
2023/06/11 06:04:49;;;;;;;9.53;8.53;;;;;;;;;;5072694;28;20538;-75
2023/06/11 06:07:17;;;;;;;10.10;9.10;;;;;;;;;;5072934;28;20442;-75
2023/06/11 06:09:44;;;;;;;11.13;9.93;;;;;;;;;;5058577;28;20437;-76
2023/06/11 06:12:12;;;;;;;9.83;8.83;;;;;;;;;;5054466;28;20790;-75
2023/06/11 06:14:39;;;;;;;9.80;8.20;;;;;;;;;;5058266;28;20450;-75
2023/06/11 06:17:06;;;;;;;10.10;9.00;;;;;;;;;;5072871;28;20481;-76
2023/06/11 06:19:33;;;;;;;10.67;9.60;;;;;;;;;;5059076;28;20785;-76
2023/06/11 06:22:02;;;;;;;14.30;10.33;;;;;;;;;;5055416;28;20444;-75
2023/06/11 06:24:29;;;;;;;11.23;9.83;;;;;;;;;;5054708;28;20950;-75
2023/06/11 06:27:00;;;;;;;12.10;10.50;;;;;;;;;;5054670;28;20475;-75
2023/06/11 06:29:28;;;;;;;10.17;8.63;;;;;;;;;;5055281;28;20523;-76
2023/06/11 06:31:55;;;;;;;8.87;7.90;;;;;;;;;;5054571;28;20473;-76
2023/06/11 06:34:22;;;;;;;9.23;8.17;;;;;;;;;;5054483;28;20474;-76
2023/06/11 06:36:50;;;;;;;10.80;8.20;;;;;;;;;;5054606;28;20468;-76
2023/06/11 06:39:19;;;;;;;9.33;7.83;;;;;;;;;;5054266;28;20486;-76
2023/06/11 06:41:46;;;;;;;9.27;7.60;;;;;;;;;;5054677;28;20519;-76
2023/06/11 06:44:13;;;;;;;10.10;7.97;;;;;;;;;;5053456;28;20581;-75
2023/06/11 06:46:41;;;;;;;7.10;6.40;;;;;;;;;;5057551;28;20454;-76
2023/06/11 06:49:08;;;;;;;9.87;7.90;;;;;;;;;;5053551;28;20537;-76
2023/06/11 06:51:37;;;;;;;8.20;6.90;;;;;;;;;;5053556;28;20519;-76
2023/06/11 06:54:04;;;;;;;8.90;7.93;;;;;;;;;;5056792;28;20493;-74
2023/06/11 06:56:32;;;;;;;9.70;8.13;;;;;;;;;;5070917;28;20514;-75
2023/06/11 06:59:06;;;;;;;9.53;6.90;;;;;;;;;;5064355;28;20536;-75
2023/06/11 07:01:34;;;;;;;8.10;7.30;;;;;;;;;;5053143;28;20471;-75
2023/06/11 07:04:01;;;;;;;8.17;7.07;;;;;;;;;;5053781;28;20490;-75
2023/06/11 07:06:29;;;;;;;9.00;8.10;;;;;;;;;;5053467;28;20435;-75
2023/06/11 07:08:56;;;;;;;8.90;7.60;;;;;;;;;;5053442;28;20462;-76
2023/06/11 07:11:23;;;;;;;6.80;5.97;;;;;;;;;;5069687;28;20438;-75
2023/06/11 07:13:52;;;;;;;7.80;6.60;;;;;;;;;;5070913;28;20517;-76
2023/06/11 07:16:19;;;;;;;8.73;7.40;;;;;;;;;;5070794;28;20479;-77
2023/06/11 07:18:47;;;;;;;7.93;6.60;;;;;;;;;;5070785;28;20457;-76
2023/06/11 07:21:16;;;;;;;8.30;7.50;;;;;;;;;;5053133;28;20471;-77
2023/06/11 07:23:44;;;;;;;7.90;7.10;;;;;;;;;;5053204;28;20965;-74
2023/06/11 07:26:13;;;;;;;9.33;7.57;;;;;;;;;;5053204;28;20570;-75
2023/06/11 07:28:41;;;;;;;7.53;6.83;;;;;;;;;;5052663;28;20440;-74
2023/06/11 07:31:10;;;;;;;8.87;6.60;;;;;;;;;;5052756;28;20438;-74
2023/06/11 07:33:38;;;;;;;7.37;6.67;;;;;;;;;;5052989;28;20462;-74
2023/06/11 07:36:06;;;;;;;8.50;6.53;;;;;;;;;;5052957;28;20442;-75
2023/06/11 07:38:33;;;;;;;7.23;6.10;;;;;;;;;;5052719;28;20518;-74
2023/06/11 07:41:01;;;;;;;8.40;7.50;;;;;;;;;;5050862;28;20464;-76
2023/06/11 07:43:28;;;;;;;8.03;7.20;;;;;;;;;;5052675;28;20487;-76
2023/06/11 07:45:55;;;;;;;7.43;6.67;;;;;;;;;;5056382;28;20527;-75
2023/06/11 07:48:24;;;;;;;7.40;6.67;;;;;;;;;;5070752;28;20824;-75
2023/06/11 07:50:53;;;;;;;6.93;6.20;;;;;;;;;;5070343;28;20505;-76
2023/06/11 07:53:21;;;;;;;9.57;6.60;;;;;;;;;;5064129;28;21334;-76
2023/06/11 07:55:50;;;;;;;7.00;6.30;;;;;;;;;;5069471;28;20466;-76
2023/06/11 07:58:17;;;;;;;8.53;7.67;;;;;;;;;;5070240;28;20835;-77
2023/06/11 08:00:44;;;;;;;7.50;6.67;;;;;;;;;;5069681;28;20491;-75
2023/06/11 08:03:12;;;;;;;11.13;8.33;;;;;;;;;;5069614;28;20530;-75
2023/06/11 08:05:40;;;;;;;7.40;6.40;;;;;;;;;;5066136;28;20809;-75
2023/06/11 08:08:08;;;;;;;7.30;6.20;;;;;;;;;;5069187;28;20486;-76
2023/06/11 08:10:40;;;;;;;9.20;7.20;;;;;;;;;;5056499;28;20521;-76
2023/06/11 08:13:08;;;;;;;6.77;6.10;;;;;;;;;;5068103;28;20439;-75
2023/06/11 08:15:35;;;;;;;7.93;7.17;;;;;;;;;;5067003;28;20439;-75
2023/06/11 08:18:02;;;;;;;7.23;6.47;;;;;;;;;;5051410;28;20996;-76
2023/06/11 08:20:30;;;;;;;7.07;5.83;;;;;;;;;;5054289;28;20448;-75
2023/06/11 08:22:59;;;;;;;6.90;6.20;;;;;;;;;;5071992;28;20449;-76
2023/06/11 08:25:26;;;;;;;8.83;6.23;;;;;;;;;;5073874;28;20794;-76
2023/06/11 08:27:55;;;;;;;7.20;6.50;;;;;;;;;;5073528;28;20435;-76
2023/06/11 08:30:22;;;;;;;8.03;6.60;;;;;;;;;;5072522;28;20470;-76
2023/06/11 08:32:54;;;;;;;7.47;5.87;;;;;;;;;;5063102;28;20442;-76
2023/06/11 08:35:21;;;;;;;7.17;5.97;;;;;;;;;;5055533;28;20425;-76
2023/06/11 08:38:03;;;;;;;14.67;9.00;;;;;;;;;;5055389;28;20914;-76
2023/06/11 08:40:32;;;;;;;13.27;8.67;;;;;;;;;;5071912;28;20439;-76
2023/06/11 08:43:00;;;;;;;11.93;8.60;;;;;;;;;;5073408;28;20446;-75
2023/06/11 08:45:27;;;;;;;7.20;6.07;;;;;;;;;;5073502;28;20461;-77
2023/06/11 08:47:56;;;;;;;6.93;6.13;;;;;;;;;;5073281;28;21097;-76
2023/06/11 08:50:26;;;;;;;7.00;6.10;;;;;;;;;;5072936;28;20443;-75
2023/06/11 08:52:53;;;;;;;7.37;6.70;;;;;;;;;;5072181;28;20435;-76
2023/06/11 08:55:20;;;;;;;7.20;6.50;;;;;;;;;;5072426;28;20466;-76
2023/06/11 08:57:50;;;;;;;7.87;6.60;;;;;;;;;;5072471;28;20508;-76
2023/06/11 09:00:18;;;;;;;7.40;6.43;;;;;;;;;;5071921;28;20438;-75
2023/06/11 09:02:45;;;;;;;7.43;6.50;;;;;;;;;;5072388;28;20465;-75
2023/06/11 09:05:13;;;;;;;8.13;6.07;;;;;;;;;;5072558;28;20998;-75
2023/06/11 09:07:50;;;;;;;6.43;5.77;;;;;;;;;;5072686;28;20849;-74
2023/06/11 09:10:20;;;;;;;10.13;6.60;;;;;;;;;;5068946;28;20435;-76
2023/06/11 09:12:47;;;;;;;6.43;5.53;;;;;;;;;;5073314;28;20451;-76
2023/06/11 09:15:17;;;;;;;7.30;6.27;;;;;;;;;;5073129;28;20443;-75
2023/06/11 09:17:46;;;;;;;6.90;5.47;;;;;;;;;;5069255;28;20930;-75
2023/06/11 09:20:14;;;;;;;6.93;5.50;;;;;;;;;;5065904;28;20445;-76
2023/06/11 09:22:42;;;;;;;6.73;5.90;;;;;;;;;;5055055;28;20444;-76
2023/06/11 09:25:16;;;;;;;9.03;6.40;;;;;;;;;;5056480;28;20526;-76
2023/06/11 09:27:44;;;;;;;6.00;5.40;;;;;;;;;;5059218;28;20474;-76
2023/06/11 09:30:13;;;;;;;5.87;5.23;;;;;;;;;;5072545;28;20463;-76
2023/06/11 09:32:42;;;;;;;7.00;5.60;;;;;;;;;;5069163;28;20450;-76
2023/06/11 09:35:10;;;;;;;6.50;5.87;;;;;;;;;;5061292;28;20440;-76
2023/06/11 09:37:41;;;;;;;7.27;5.33;;;;;;;;;;5059812;28;20481;-76
2023/06/11 09:40:10;;;;;;;8.40;5.70;;;;;;;;;;5071726;28;20846;-76
2023/06/11 09:42:38;;;;;;;6.73;5.60;;;;;;;;;;5061049;28;20485;-76
2023/06/11 09:45:07;;;;;;;9.47;5.87;;;;;;;;;;5068934;28;20556;-76
2023/06/11 09:47:37;;;;;;;7.93;6.07;;;;;;;;;;5055450;28;20926;-75
2023/06/11 09:50:07;;;;;;;7.23;5.27;;;;;;;;;;5064273;28;20494;-77
2023/06/11 09:52:38;;;;;;;7.30;5.40;;;;;;;;;;5055151;28;20843;-75
2023/06/11 09:55:07;;;;;;;6.37;5.53;;;;;;;;;;5056912;28;20501;-76
2023/06/11 09:57:35;;;;;;;6.23;4.50;;;;;;;;;;5069108;28;20533;-76
2023/06/11 10:00:06;;;;;;;6.40;5.73;;;;;;;;;;5073245;28;20440;-76
2023/06/11 10:02:34;;;;;;;5.50;5.00;;;;;;;;;;5072308;28;20446;-75
2023/06/11 10:05:01;;;;;;;5.90;5.30;;;;;;;;;;5066027;28;20491;-76
2023/06/11 10:07:31;;;;;;;5.77;5.17;;;;;;;;;;5056108;28;20474;-76
2023/06/11 10:09:59;;;;;;;8.40;7.60;;;;;;;;;;5036075;28;20497;-77
2023/06/11 10:12:27;;;;;;;6.60;5.17;;;;;;;;;;5070478;28;20452;-74
2023/06/11 10:14:59;;;;;;;5.80;5.30;;;;;;;;;;5069264;28;20456;-75
2023/06/11 10:17:28;;;;;;;6.37;5.37;;;;;;;;;;5060744;28;20431;-75
2023/06/11 10:19:57;;;;;;;6.13;5.53;;;;;;;;;;5051329;28;21306;-75
2023/06/11 10:22:34;;;;;;;5.43;4.73;;;;;;;;;;5058929;28;20439;-76
2023/06/11 10:25:02;;;;;;;4.97;4.33;;;;;;;;;;5053491;28;20492;-75
2023/06/11 10:27:39;;;;;;;5.93;5.40;;;;;;;;;;5063663;28;20462;-74
2023/06/11 10:30:10;;;;;;;7.37;5.50;;;;;;;;;;5058326;28;20842;-75
2023/06/11 10:32:38;;;;;;;6.50;4.57;;;;;;;;;;5061821;28;20442;-74
2023/06/11 10:35:07;;;;;;;5.20;4.70;;;;;;;;;;5071928;28;20446;-74
2023/06/11 10:37:38;;;;;;;5.50;5.00;;;;;;;;;;5065212;28;20475;-75
2023/06/11 10:40:09;;;;;;;10.20;4.60;;;;;;;;;;5057942;28;20441;-75
2023/06/11 10:42:37;;;;;;;10.17;4.60;;;;;;;;;;5066446;28;20446;-73
2023/06/11 10:45:11;;;;;;;5.67;5.17;;;;;;;;;;5058686;28;20596;-75
2023/06/11 10:47:43;;;;;;;6.50;5.00;;;;;;;;;;5068764;28;20429;-75
2023/06/11 10:50:14;;;;;;;5.33;4.60;;;;;;;;;;5065717;28;20450;-75
2023/06/11 10:52:50;;;;;;;5.53;5.03;;;;;;;;;;5064521;28;20556;-75
2023/06/11 10:55:21;;;;;;;5.03;4.53;;;;;;;;;;5062794;28;20474;-75
2023/06/11 10:57:51;;;;;;;9.20;5.67;;;;;;;;;;5057150;28;21138;-75
2023/06/11 11:00:19;;;;;;;5.60;5.10;;;;;;;;;;5064272;28;20435;-74
2023/06/11 11:02:47;;;;;;;6.33;5.73;;;;;;;;;;5051564;28;20447;-75
2023/06/11 11:05:14;;;;;;;5.40;4.70;;;;;;;;;;5061807;28;20565;-75
2023/06/11 11:07:44;;;;;;;7.23;5.20;;;;;;;;;;5064092;28;20443;-75
2023/06/11 11:10:19;;;;;;;5.03;4.23;;;;;;;;;;5053965;28;20450;-74
2023/06/11 11:12:49;;;;;;;7.53;5.40;;;;;;;;;;5051373;28;20443;-75
2023/06/11 11:15:17;;;;;;;6.70;5.17;;;;;;;;;;5066584;28;20444;-76
2023/06/11 11:17:50;;;;;;;7.10;4.70;;;;;;;;;;5063326;28;20441;-75
2023/06/11 11:20:19;;;;;;;10.33;5.80;;;;;;;;;;5067478;28;20435;-75
2023/06/11 11:22:52;;;;;;;4.83;4.33;;;;;;;;;;5063622;28;20444;-74
2023/06/11 11:25:21;;;;;;;4.90;4.40;;;;;;;;;;5067630;28;20487;-75
2023/06/11 11:27:49;;;;;;;5.70;5.10;;;;;;;;;;5067183;28;20438;-76
2023/06/11 11:30:17;;;;;;;4.90;3.93;;;;;;;;;;5054981;28;20718;-76
2023/06/11 11:32:44;;;;;;;5.17;4.67;;;;;;;;;;5058309;28;20434;-76
2023/06/11 11:35:14;;;;;;;5.30;4.80;;;;;;;;;;5059929;28;20439;-75
2023/06/11 11:37:41;;;;;;;4.27;3.87;;;;;;;;;;5063744;28;20498;-76
2023/06/11 11:40:10;;;;;;;5.77;4.33;;;;;;;;;;5065230;28;20435;-76
2023/06/11 11:42:49;;;;;;;6.10;4.40;;;;;;;;;;5066150;28;20484;-73
2023/06/11 11:45:17;;;;;;;6.37;4.97;;;;;;;;;;5052941;28;20569;-75
2023/06/11 11:47:46;;;;;;;6.50;4.80;;;;;;;;;;5058922;28;20566;-75
2023/06/11 11:50:21;;;;;;;6.03;4.87;;;;;;;;;;5056219;28;20436;-76
2023/06/11 11:53:02;;;;;;;6.40;5.30;;;;;;;;;;5058023;28;20433;-75
2023/06/11 11:55:30;;;;;;;8.40;5.37;;;;;;;;;;5062339;28;20466;-75
2023/06/11 11:58:09;;;;;;;5.00;4.50;;;;;;;;;;5052348;28;20439;-75
2023/06/11 12:00:37;;;;;;;7.80;4.63;;;;;;;;;;5068938;28;20466;-75
2023/06/11 12:03:10;;;;;;;5.00;4.50;;;;;;;;;;5058399;28;20797;-74
2023/06/11 12:05:57;;;;;;;6.40;5.30;;;;;;;;;;5052803;28;21347;-76
2023/06/11 12:08:24;;;;;;;6.67;4.37;;;;;;;;;;5062284;28;20472;-75
2023/06/11 12:10:51;;;;;;;5.80;4.20;;;;;;;;;;5051127;28;20477;-75
2023/06/11 12:13:20;;;;;;;5.30;4.53;;;;;;;;;;5068332;28;20466;-75
2023/06/11 12:15:50;;;;;;;5.60;5.10;;;;;;;;;;5065241;28;20512;-75
2023/06/11 12:18:18;;;;;;;4.93;3.90;;;;;;;;;;5053851;28;20515;-76
2023/06/11 12:20:45;;;;;;;5.60;4.03;;;;;;;;;;5051664;28;20441;-75
2023/06/11 12:23:18;;;;;;;9.07;4.93;;;;;;;;;;5066020;28;20442;-75
2023/06/11 12:25:45;;;;;;;7.17;4.00;;;;;;;;;;5069410;28;20562;-75
2023/06/11 12:28:18;;;;;;;5.90;4.17;;;;;;;;;;5052512;28;20472;-75
2023/06/11 12:30:47;;;;;;;8.17;4.10;;;;;;;;;;5055303;28;20444;-75
2023/06/11 12:33:15;;;;;;;4.80;4.00;;;;;;;;;;5067045;28;20454;-75
2023/06/11 12:35:44;;;;;;;6.50;3.97;;;;;;;;;;5065841;28;20447;-76
2023/06/11 12:38:11;;;;;;;5.70;4.30;;;;;;;;;;5063897;28;20488;-76
2023/06/11 12:40:38;;;;;;;5.47;3.63;;;;;;;;;;5069081;28;20443;-75
2023/06/11 12:43:10;;;;;;;4.47;4.00;;;;;;;;;;5056661;28;20479;-75
2023/06/11 12:45:37;;;;;;;7.13;4.67;;;;;;;;;;5051123;28;20519;-75
2023/06/11 12:48:06;;;;;;;5.37;4.10;;;;;;;;;;5051647;28;20444;-75
2023/06/11 12:50:33;;;;;;;6.30;5.00;;;;;;;;;;5050103;28;20526;-76
2023/06/11 12:53:01;;;;;;;5.37;4.63;;;;;;;;;;5052692;28;20474;-74
2023/06/11 12:55:28;;;;;;;7.03;4.17;;;;;;;;;;5062659;28;20467;-75
2023/06/11 12:57:55;;;;;;;4.60;3.93;;;;;;;;;;5069270;28;20467;-75
2023/06/11 13:00:25;;;;;;;5.77;4.40;;;;;;;;;;5069194;28;20941;-75
2023/06/11 13:02:52;;;;;;;5.00;3.93;;;;;;;;;;5068683;28;20439;-75
2023/06/11 13:05:21;;;;;;;5.40;3.90;;;;;;;;;;5052137;28;20950;-75
2023/06/11 13:07:48;;;;;;;4.33;3.83;;;;;;;;;;5050933;28;20934;-75
2023/06/11 13:10:16;;;;;;;4.40;3.90;;;;;;;;;;5051475;28;20439;-75
2023/06/11 13:12:44;;;;;;;4.17;3.40;;;;;;;;;;5068313;28;20427;-76
2023/06/11 13:15:11;;;;;;;4.30;3.60;;;;;;;;;;5020234;28;20468;-74
2023/06/11 13:17:39;;;;;;;5.83;4.03;;;;;;;;;;5048388;28;20868;-74
2023/06/11 13:20:07;;;;;;;4.57;3.63;;;;;;;;;;5058108;28;20524;-75
2023/06/11 13:22:36;;;;;;;3.90;3.10;;;;;;;;;;5062775;28;20439;-75
2023/06/11 13:25:04;;;;;;;4.43;3.83;;;;;;;;;;5057500;28;20552;-75
2023/06/11 13:27:31;;;;;;;4.80;4.13;;;;;;;;;;5060528;28;20435;-75
2023/06/11 13:30:01;;;;;;;4.80;3.30;;;;;;;;;;5060114;28;21025;-76
2023/06/11 13:32:28;;;;;;;5.57;3.50;;;;;;;;;;5056728;28;20453;-74
2023/06/11 13:34:56;;;;;;;5.20;3.87;;;;;;;;;;5055241;28;20430;-75
2023/06/11 13:37:23;;;;;;;4.63;3.57;;;;;;;;;;5061336;28;20497;-75
2023/06/11 13:39:51;;;;;;;4.60;3.77;;;;;;;;;;5061317;28;20538;-76
2023/06/11 13:42:19;;;;;;;5.60;3.70;;;;;;;;;;5053182;28;20527;-75
2023/06/11 13:44:46;;;;;;;4.97;3.87;;;;;;;;;;5051523;28;20537;-75
2023/06/11 13:47:14;;;;;;;6.20;3.77;;;;;;;;;;5069385;28;20446;-75
2023/06/11 13:49:41;;;;;;;4.83;3.93;;;;;;;;;;5060005;28;20525;-76
2023/06/11 13:52:09;;;;;;;5.30;3.67;;;;;;;;;;5064828;28;20917;-76
2023/06/11 13:54:37;;;;;;;5.70;3.80;;;;;;;;;;5060994;28;20965;-74
2023/06/11 13:57:06;;;;;;;4.37;3.83;;;;;;;;;;5057449;28;20443;-75
2023/06/11 13:59:33;;;;;;;6.03;3.80;;;;;;;;;;5064500;28;20475;-75
2023/06/11 14:02:02;;;;;;;4.97;3.80;;;;;;;;;;5067216;28;20461;-76
2023/06/11 14:04:29;;;;;;;4.70;3.73;;;;;;;;;;5058451;28;20428;-76
2023/06/11 14:06:56;;;;;;;5.70;3.77;;;;;;;;;;5069857;28;20437;-75
2023/06/11 14:09:24;;;;;;;5.40;3.40;;;;;;;;;;5066515;28;20480;-75
2023/06/11 14:11:51;;;;;;;4.77;3.60;;;;;;;;;;5069439;28;20436;-75
2023/06/11 14:14:19;;;;;;;5.97;3.80;;;;;;;;;;5064324;28;20818;-75
2023/06/11 14:16:47;;;;;;;4.93;3.00;;;;;;;;;;5060767;28;20542;-75
2023/06/11 14:19:15;;;;;;;4.30;3.00;;;;;;;;;;5066201;28;20489;-75
2023/06/11 14:21:42;;;;;;;4.67;3.43;;;;;;;;;;5057775;28;20439;-75
2023/06/11 14:24:10;;;;;;;5.40;4.00;;;;;;;;;;5060392;28;20447;-76
2023/06/11 14:26:37;;;;;;;4.13;3.07;;;;;;;;;;5058500;28;20588;-75
2023/06/11 14:29:05;;;;;;;6.47;3.90;;;;;;;;;;5068312;28;20442;-75
2023/06/11 14:31:35;;;;;;;4.17;3.40;;;;;;;;;;5066080;28;20445;-75
2023/06/11 14:34:04;;;;;;;5.30;3.80;;;;;;;;;;5060976;28;20534;-75
2023/06/11 14:36:31;;;;;;;3.93;2.97;;;;;;;;;;5063451;28;21027;-75
2023/06/11 14:38:59;;;;;;;5.77;3.50;;;;;;;;;;5064924;28;20815;-75
2023/06/11 14:41:27;;;;;;;6.07;3.47;;;;;;;;;;5065465;28;20982;-75
2023/06/11 14:43:54;;;;;;;5.20;3.30;;;;;;;;;;5063514;28;20453;-74
2023/06/11 14:46:22;;;;;;;4.90;3.83;;;;;;;;;;5060950;28;20478;-74